JBU172 MMUN-KBOS
Flight info
| Callsign | JBU172 |
|---|---|
| Flight time | N/A |
| Altitude | 35000 |
| Route | OMSUK2A OMSUK UM219 MYDIA DCT CIGAR DCT KNOST DCT CAMJO Q109 TEEEM Q99 POLYY DCT DADDS/N0452F370 Q87 GEARS DCT BBOBO Q22 RBV Q419 JFK ROBUC3 |
| Aircraft | A320/M-SDE3FGHIRWY/LB1 |
Departure
| Time | 2026-04-27 13:54 |
|---|---|
| Airport | Cancún International Airport (MMUN) |
Arrival
| Time | N/A |
|---|---|
| Airport | Boston Logan International Airport (KBOS) |
| Time | Latitude | Longitude | Altitude | Speed | Heading |
|---|---|---|---|---|---|
| 2026-04-27 13:36 | 21.03795 | -86.87313 | 28 ft | 0 kts | 33° |
| 2026-04-27 13:45 | 21.03794 | -86.87313 | 28 ft | 1 kts | 33° |
| 2026-04-27 13:45 | 21.03784 | -86.87320 | 28 ft | 0 kts | 33° |
| 2026-04-27 13:45 | 21.03772 | -86.87328 | 28 ft | 2 kts | 33° |
| 2026-04-27 13:46 | 21.03760 | -86.87337 | 28 ft | 2 kts | 33° |
| 2026-04-27 13:46 | 21.03751 | -86.87344 | 28 ft | 0 kts | 33° |
| 2026-04-27 13:46 | 21.03739 | -86.87350 | 28 ft | 2 kts | 8° |
| 2026-04-27 13:46 | 21.03724 | -86.87350 | 28 ft | 2 kts | 344° |
| 2026-04-27 13:47 | 21.03711 | -86.87343 | 28 ft | 2 kts | 317° |
| 2026-04-27 13:47 | 21.03705 | -86.87336 | 28 ft | 1 kts | 303° |
| 2026-04-27 13:47 | 21.03702 | -86.87331 | 28 ft | 0 kts | 303° |
| 2026-04-27 13:49 | 21.03724 | -86.87366 | 28 ft | 12 kts | 304° |
| 2026-04-27 13:49 | 21.03785 | -86.87463 | 28 ft | 16 kts | 302° |
| 2026-04-27 13:50 | 21.03816 | -86.87575 | 28 ft | 16 kts | 261° |
| 2026-04-27 13:50 | 21.03840 | -86.87689 | 28 ft | 16 kts | 304° |
| 2026-04-27 13:50 | 21.03904 | -86.87791 | 28 ft | 16 kts | 303° |
| 2026-04-27 13:50 | 21.03969 | -86.87896 | 28 ft | 16 kts | 303° |
| 2026-04-27 13:51 | 21.04033 | -86.88004 | 28 ft | 17 kts | 302° |
| 2026-04-27 13:51 | 21.04098 | -86.88112 | 28 ft | 17 kts | 303° |
| 2026-04-27 13:51 | 21.04166 | -86.88219 | 28 ft | 17 kts | 304° |
| 2026-04-27 13:51 | 21.04234 | -86.88327 | 28 ft | 17 kts | 303° |
| 2026-04-27 13:52 | 21.04303 | -86.88435 | 28 ft | 17 kts | 304° |
| 2026-04-27 13:52 | 21.04372 | -86.88543 | 28 ft | 17 kts | 302° |
| 2026-04-27 13:52 | 21.04440 | -86.88654 | 28 ft | 18 kts | 303° |
| 2026-04-27 13:52 | 21.04521 | -86.88783 | 28 ft | 20 kts | 304° |
| 2026-04-27 13:53 | 21.04598 | -86.89033 | 28 ft | 17 kts | 217° |
| 2026-04-27 13:53 | 21.04490 | -86.89055 | 28 ft | 16 kts | 130° |
| 2026-04-27 13:53 | 21.04403 | -86.88911 | 28 ft | 45 kts | 123° |
| 2026-04-27 13:54 | 21.04113 | -86.88443 | 28 ft | 105 kts | 124° |
| 2026-04-27 13:54 | 21.03594 | -86.87611 | 36 ft | 161 kts | 123° |
| 2026-04-27 13:54 | 21.02940 | -86.86556 | 454 ft | 178 kts | 123° |
| 2026-04-27 13:54 | 21.02245 | -86.85408 | 987 ft | 189 kts | 122° |
| 2026-04-27 13:55 | 21.01544 | -86.84225 | 1592 ft | 194 kts | 121° |
| 2026-04-27 13:55 | 21.00797 | -86.82966 | 2047 ft | 208 kts | 121° |
| 2026-04-27 13:55 | 20.99988 | -86.81612 | 2498 ft | 222 kts | 121° |
| 2026-04-27 13:55 | 20.99144 | -86.80213 | 3120 ft | 228 kts | 121° |
| 2026-04-27 13:56 | 20.98291 | -86.78756 | 3706 ft | 236 kts | 115° |
| 2026-04-27 13:56 | 20.97951 | -86.77025 | 4046 ft | 253 kts | 81° |
| 2026-04-27 13:56 | 20.98706 | -86.75298 | 4536 ft | 265 kts | 46° |
| 2026-04-27 13:56 | 21.00258 | -86.74246 | 5255 ft | 269 kts | 22° |
| 2026-04-27 13:57 | 21.02077 | -86.73742 | 6002 ft | 272 kts | 8° |
| 2026-04-27 13:57 | 21.03956 | -86.73679 | 6719 ft | 274 kts | 356° |
| 2026-04-27 13:57 | 21.05834 | -86.74012 | 7433 ft | 276 kts | 346° |
| 2026-04-27 13:57 | 21.07650 | -86.74717 | 8145 ft | 278 kts | 335° |
| 2026-04-27 13:58 | 21.09316 | -86.75748 | 8831 ft | 280 kts | 326° |
| 2026-04-27 13:58 | 21.10810 | -86.77088 | 9476 ft | 283 kts | 316° |
| 2026-04-27 13:58 | 21.12078 | -86.78697 | 10106 ft | 286 kts | 307° |
| 2026-04-27 13:58 | 21.13288 | -86.80439 | 10513 ft | 295 kts | 314° |
| 2026-04-27 13:59 | 21.14907 | -86.81805 | 10747 ft | 306 kts | 335° |
| 2026-04-27 13:59 | 21.17009 | -86.82383 | 10995 ft | 319 kts | 359° |
| 2026-04-27 13:59 | 21.19252 | -86.82037 | 11254 ft | 332 kts | 12° |
| 2026-04-27 13:59 | 21.21537 | -86.81519 | 11645 ft | 339 kts | 11° |
| 2026-04-27 14:00 | 21.23843 | -86.81010 | 12176 ft | 341 kts | 11° |
| 2026-04-27 14:00 | 21.26196 | -86.80487 | 12740 ft | 342 kts | 11° |
| 2026-04-27 14:00 | 21.28517 | -86.79966 | 13250 ft | 344 kts | 11° |
| 2026-04-27 14:00 | 21.30891 | -86.79429 | 13741 ft | 346 kts | 11° |
| 2026-04-27 14:01 | 21.33269 | -86.78889 | 14223 ft | 348 kts | 11° |
| 2026-04-27 14:01 | 21.35640 | -86.78348 | 14700 ft | 350 kts | 11° |
| 2026-04-27 14:01 | 21.38024 | -86.77805 | 15157 ft | 352 kts | 11° |
| 2026-04-27 14:01 | 21.40365 | -86.77271 | 15591 ft | 354 kts | 11° |
| 2026-04-27 14:02 | 21.42807 | -86.76713 | 16037 ft | 356 kts | 11° |
| 2026-04-27 14:02 | 21.45267 | -86.76151 | 16486 ft | 358 kts | 11° |
| 2026-04-27 14:02 | 21.47621 | -86.75614 | 16899 ft | 359 kts | 11° |
| 2026-04-27 14:02 | 21.50045 | -86.75060 | 17309 ft | 361 kts | 11° |
| 2026-04-27 14:03 | 21.52532 | -86.74490 | 17727 ft | 363 kts | 10° |
| 2026-04-27 14:03 | 21.54986 | -86.73928 | 18121 ft | 365 kts | 10° |
| 2026-04-27 14:03 | 21.57501 | -86.73352 | 18510 ft | 367 kts | 10° |
| 2026-04-27 14:03 | 21.59986 | -86.72783 | 18882 ft | 370 kts | 10° |
| 2026-04-27 14:04 | 21.62514 | -86.72203 | 19265 ft | 372 kts | 10° |
| 2026-04-27 14:04 | 21.65013 | -86.71629 | 19636 ft | 374 kts | 10° |
| 2026-04-27 14:04 | 21.67553 | -86.71047 | 20006 ft | 376 kts | 10° |
| 2026-04-27 14:04 | 21.70063 | -86.70470 | 20358 ft | 379 kts | 10° |
| 2026-04-27 14:05 | 21.72662 | -86.69874 | 20722 ft | 381 kts | 10° |
| 2026-04-27 14:05 | 21.75263 | -86.69276 | 21071 ft | 383 kts | 10° |
| 2026-04-27 14:05 | 21.77855 | -86.68681 | 21410 ft | 385 kts | 10° |
| 2026-04-27 14:05 | 21.80508 | -86.68071 | 21744 ft | 388 kts | 10° |
| 2026-04-27 14:06 | 21.83133 | -86.67467 | 22070 ft | 390 kts | 10° |
| 2026-04-27 14:06 | 21.85783 | -86.66857 | 22401 ft | 392 kts | 10° |
| 2026-04-27 14:06 | 21.88481 | -86.66238 | 22737 ft | 394 kts | 10° |
| 2026-04-27 14:06 | 21.91143 | -86.65626 | 23063 ft | 396 kts | 10° |
| 2026-04-27 14:07 | 21.93871 | -86.64998 | 23389 ft | 398 kts | 10° |
| 2026-04-27 14:07 | 21.96573 | -86.64375 | 23718 ft | 400 kts | 9° |
| 2026-04-27 14:07 | 21.99258 | -86.63757 | 24038 ft | 402 kts | 9° |
| 2026-04-27 14:07 | 22.02025 | -86.63120 | 24350 ft | 404 kts | 9° |
| 2026-04-27 14:08 | 22.04788 | -86.62483 | 24662 ft | 406 kts | 9° |
| 2026-04-27 14:08 | 22.07543 | -86.61848 | 24993 ft | 407 kts | 9° |
| 2026-04-27 14:08 | 22.10328 | -86.61204 | 25309 ft | 409 kts | 9° |
| 2026-04-27 14:08 | 22.13132 | -86.60558 | 25618 ft | 411 kts | 9° |
| 2026-04-27 14:09 | 22.15928 | -86.59913 | 25920 ft | 413 kts | 9° |
| 2026-04-27 14:09 | 22.18720 | -86.59268 | 26214 ft | 415 kts | 9° |
| 2026-04-27 14:09 | 22.21406 | -86.58647 | 26499 ft | 416 kts | 9° |
| 2026-04-27 14:09 | 22.24235 | -86.57993 | 26794 ft | 418 kts | 9° |
| 2026-04-27 14:10 | 22.27006 | -86.57352 | 27079 ft | 420 kts | 9° |
| 2026-04-27 14:10 | 22.29850 | -86.56693 | 27344 ft | 421 kts | 9° |
| 2026-04-27 14:10 | 22.32646 | -86.56047 | 27602 ft | 423 kts | 9° |
| 2026-04-27 14:10 | 22.35442 | -86.55399 | 27869 ft | 425 kts | 8° |
| 2026-04-27 14:11 | 22.38366 | -86.54721 | 28136 ft | 426 kts | 9° |
| 2026-04-27 14:11 | 22.41207 | -86.54063 | 28392 ft | 428 kts | 8° |
| 2026-04-27 14:11 | 22.44098 | -86.53394 | 28658 ft | 429 kts | 8° |
| 2026-04-27 14:11 | 22.47011 | -86.52719 | 28906 ft | 430 kts | 8° |
| 2026-04-27 14:12 | 22.49795 | -86.52074 | 29151 ft | 431 kts | 8° |
| 2026-04-27 14:12 | 22.52586 | -86.51426 | 29454 ft | 430 kts | 8° |
| 2026-04-27 14:12 | 22.55298 | -86.50797 | 29757 ft | 429 kts | 8° |
| 2026-04-27 14:13 | 22.60538 | -86.49580 | 30207 ft | 430 kts | 8° |
| 2026-04-27 14:13 | 22.63459 | -86.48901 | 30436 ft | 430 kts | 8° |
| 2026-04-27 14:13 | 22.66343 | -86.48231 | 30676 ft | 431 kts | 8° |
| 2026-04-27 14:13 | 22.69283 | -86.47546 | 30938 ft | 430 kts | 8° |
| 2026-04-27 14:14 | 22.72196 | -86.46867 | 31180 ft | 430 kts | 8° |
| 2026-04-27 14:14 | 22.75092 | -86.46193 | 31404 ft | 430 kts | 8° |
| 2026-04-27 14:14 | 22.78011 | -86.45515 | 31647 ft | 430 kts | 8° |
| 2026-04-27 14:14 | 22.80907 | -86.44840 | 31892 ft | 430 kts | 8° |
| 2026-04-27 14:15 | 22.83827 | -86.44159 | 32114 ft | 430 kts | 8° |
| 2026-04-27 14:15 | 22.86592 | -86.43514 | 32325 ft | 430 kts | 8° |
| 2026-04-27 14:15 | 22.89482 | -86.42839 | 32552 ft | 429 kts | 8° |
| 2026-04-27 14:15 | 22.92362 | -86.42167 | 32766 ft | 429 kts | 8° |
| 2026-04-27 14:16 | 22.95198 | -86.41504 | 32966 ft | 430 kts | 8° |
| 2026-04-27 14:16 | 22.98163 | -86.40811 | 33172 ft | 430 kts | 8° |
| 2026-04-27 14:16 | 23.00965 | -86.40155 | 33354 ft | 430 kts | 8° |
| 2026-04-27 14:16 | 23.03331 | -86.39601 | 33512 ft | 431 kts | 8° |
| 2026-04-27 14:17 | 23.06948 | -86.38754 | 33752 ft | 431 kts | 8° |
| 2026-04-27 14:17 | 23.10216 | -86.37987 | 33964 ft | 432 kts | 8° |
| 2026-04-27 14:17 | 23.13183 | -86.37292 | 34150 ft | 432 kts | 8° |
| 2026-04-27 14:17 | 23.16147 | -86.36597 | 34325 ft | 432 kts | 8° |
| 2026-04-27 14:18 | 23.19091 | -86.35907 | 34502 ft | 433 kts | 8° |
| 2026-04-27 14:18 | 23.21763 | -86.35280 | 34656 ft | 433 kts | 8° |
| 2026-04-27 14:18 | 23.24538 | -86.34627 | 34805 ft | 433 kts | 8° |
| 2026-04-27 14:18 | 23.27654 | -86.33895 | 34952 ft | 434 kts | 8° |
| 2026-04-27 14:19 | 23.30591 | -86.33205 | 35026 ft | 435 kts | 8° |
| 2026-04-27 14:19 | 23.35743 | -86.31996 | 35031 ft | 435 kts | 8° |
| 2026-04-27 14:20 | 23.41976 | -86.30531 | 35035 ft | 434 kts | 8° |